createdAt,value
2022-09-22T00:01:40.034Z,97879.84
2022-09-22T00:04:13.794Z,97875.98
2022-09-22T00:06:48.333Z,97874.71
2022-09-22T00:09:18.440Z,97876.81
2022-09-22T00:11:51.442Z,97873.41
2022-09-22T00:14:25.821Z,97868.04
2022-09-22T00:17:01.169Z,97865.55
2022-09-22T00:19:32.673Z,97861.54
2022-09-22T00:22:01.480Z,97861.80
2022-09-22T00:24:31.496Z,97864.50
2022-09-22T00:27:00.978Z,97864.95
2022-09-22T00:29:30.839Z,97863.16
2022-09-22T00:32:01.272Z,97863.52
2022-09-22T00:34:32.972Z,97861.96
2022-09-22T00:37:01.094Z,97857.11
2022-09-22T00:39:30.931Z,97852.91
2022-09-22T00:41:59.019Z,97858.68
2022-09-22T00:44:26.982Z,97856.52
2022-09-22T00:46:54.843Z,97856.59
2022-09-22T00:49:31.904Z,97854.66
2022-09-22T00:52:00.958Z,97852.77
2022-09-22T00:54:29.699Z,97852.41
2022-09-22T00:57:07.407Z,97850.95
2022-09-22T00:59:36.482Z,97851.02
2022-09-22T01:02:04.724Z,97853.95
2022-09-22T01:04:33.110Z,97849.46
2022-09-22T01:07:03.152Z,97849.59
2022-09-22T01:09:34.339Z,97851.47
2022-09-22T01:12:03.699Z,97851.72
2022-09-22T01:14:50.199Z,97850.46
2022-09-22T01:17:27.070Z,97845.07
2022-09-22T01:20:00.843Z,97848.77
2022-09-22T01:22:40.982Z,97845.08
2022-09-22T01:25:25.542Z,97848.04
2022-09-22T01:28:07.251Z,97847.71
2022-09-22T01:30:46.550Z,97847.17
2022-09-22T01:33:22.666Z,97849.78
2022-09-22T01:35:56.269Z,97854.55
2022-09-22T01:38:24.931Z,97854.11
2022-09-22T01:41:01.453Z,97852.83
2022-09-22T01:43:32.247Z,97853.54
2022-09-22T01:46:05.173Z,97853.14
2022-09-22T01:48:37.271Z,97855.37
2022-09-22T01:51:14.734Z,97856.23
2022-09-22T01:53:50.079Z,97850.50
2022-09-22T01:56:20.073Z,97850.89
2022-09-22T01:58:55.374Z,97849.64
2022-09-22T02:01:38.041Z,97846.45
2022-09-22T02:04:32.498Z,97848.75
2022-09-22T02:07:05.030Z,97853.33
2022-09-22T02:09:36.025Z,97849.98
2022-09-22T02:12:05.119Z,97848.42
2022-09-22T02:14:33.242Z,97846.69
2022-09-22T02:17:01.775Z,97844.05
2022-09-22T02:19:34.567Z,97845.10
2022-09-22T02:22:04.056Z,97849.59
2022-09-22T02:24:39.110Z,97841.23
2022-09-22T02:27:11.109Z,97848.11
2022-09-22T02:29:52.615Z,97848.52
2022-09-22T02:32:22.449Z,97846.00
2022-09-22T02:34:50.730Z,97849.62
2022-09-22T02:37:39.879Z,97850.02
2022-09-22T02:40:26.934Z,97848.66
2022-09-22T02:43:21.580Z,97853.34
2022-09-22T02:45:55.858Z,97852.43
2022-09-22T02:48:29.018Z,97850.98
2022-09-22T02:50:58.018Z,97848.23
2022-09-22T02:53:25.964Z,97848.15
2022-09-22T02:55:54.156Z,97846.61
2022-09-22T02:58:22.103Z,97842.02
2022-09-22T03:00:50.585Z,97841.71
2022-09-22T03:03:18.593Z,97842.39
2022-09-22T03:05:46.630Z,97841.58
2022-09-22T03:08:14.641Z,97850.39
2022-09-22T03:10:43.381Z,97847.92
2022-09-22T03:13:18.930Z,97851.21
2022-09-22T03:15:47.234Z,97849.63
2022-09-22T03:18:15.608Z,97851.84
2022-09-22T03:20:43.580Z,97852.34
2022-09-22T03:23:12.136Z,97860.05
2022-09-22T03:25:41.417Z,97861.51
2022-09-22T03:28:09.608Z,97859.17
2022-09-22T03:30:40.447Z,97858.31
2022-09-22T03:33:08.774Z,97859.77
2022-09-22T03:35:36.776Z,97857.89
2022-09-22T03:38:05.657Z,97862.39
2022-09-22T03:40:33.863Z,97859.25
2022-09-22T03:43:03.552Z,97859.40
2022-09-22T03:45:31.621Z,97863.48
2022-09-22T03:48:00.012Z,97862.63
2022-09-22T03:50:28.588Z,97861.45
2022-09-22T03:52:57.786Z,97860.33
2022-09-22T03:55:26.529Z,97865.58
2022-09-22T03:57:54.443Z,97862.20
2022-09-22T04:00:22.430Z,97868.04
2022-09-22T04:02:50.461Z,97870.06
2022-09-22T04:05:19.040Z,97869.39
2022-09-22T04:07:47.228Z,97872.67
2022-09-22T04:10:15.213Z,97873.60
2022-09-22T04:12:43.310Z,97875.19
2022-09-22T04:15:11.289Z,97875.47
2022-09-22T04:17:39.400Z,97876.39
2022-09-22T04:20:08.005Z,97877.30
2022-09-22T04:22:36.720Z,97878.49
2022-09-22T04:25:07.737Z,97877.98
2022-09-22T04:27:35.676Z,97878.57
2022-09-22T04:30:06.051Z,97881.38
2022-09-22T04:32:34.079Z,97880.89
2022-09-22T04:35:02.735Z,97884.30
2022-09-22T04:37:31.477Z,97881.13
2022-09-22T04:40:00.233Z,97884.17
2022-09-22T04:42:28.302Z,97879.73
2022-09-22T04:45:02.086Z,97880.60
2022-09-22T04:47:30.733Z,97883.36
2022-09-22T04:49:59.551Z,97881.22
2022-09-22T04:52:30.469Z,97884.16
2022-09-22T04:54:58.803Z,97883.92
2022-09-22T04:57:27.050Z,97887.98
2022-09-22T04:59:55.026Z,97886.59
2022-09-22T05:02:23.093Z,97886.73
2022-09-22T05:04:51.117Z,97887.02
2022-09-22T05:07:19.158Z,97889.44
2022-09-22T05:09:47.733Z,97884.16
2022-09-22T05:12:15.844Z,97882.14
2022-09-22T05:14:43.873Z,97882.04
2022-09-22T05:17:11.881Z,97882.52
2022-09-22T05:19:39.893Z,97886.26
2022-09-22T05:22:08.047Z,97883.27
2022-09-22T05:24:36.752Z,97889.47
2022-09-22T05:27:06.258Z,97889.73
2022-09-22T05:29:34.291Z,97890.34
2022-09-22T05:32:02.586Z,97887.18
2022-09-22T05:34:31.662Z,97888.09
2022-09-22T05:36:59.583Z,97890.72
2022-09-22T05:39:28.303Z,97893.34
2022-09-22T05:41:56.409Z,97892.09
2022-09-22T05:44:24.865Z,97892.57
2022-09-22T05:46:53.283Z,97893.17
2022-09-22T05:49:21.183Z,97891.83
2022-09-22T05:51:52.411Z,97890.23
2022-09-22T05:54:23.354Z,97898.02
2022-09-22T05:56:53.044Z,97894.23
2022-09-22T05:59:21.041Z,97887.20
2022-09-22T06:01:50.215Z,97886.05
2022-09-22T06:04:18.196Z,97887.52
2022-09-22T06:06:46.270Z,97887.70
2022-09-22T06:09:14.500Z,97889.37
2022-09-22T06:11:44.503Z,97883.41
2022-09-22T06:14:12.967Z,97883.39
2022-09-22T06:16:41.857Z,97885.41
2022-09-22T06:19:10.348Z,97880.54
2022-09-22T06:21:39.131Z,97880.39
2022-09-22T06:24:07.341Z,97883.08
2022-09-22T06:26:35.495Z,97881.35
2022-09-22T06:29:03.672Z,97882.64
2022-09-22T06:31:31.784Z,97880.29
2022-09-22T06:34:05.511Z,97879.09
2022-09-22T06:36:35.558Z,97884.50
2022-09-22T06:39:05.539Z,97884.59
2022-09-22T06:41:34.395Z,97887.23
2022-09-22T06:44:05.349Z,97887.32
2022-09-22T06:46:34.370Z,97884.02
2022-09-22T06:49:02.689Z,97887.14
2022-09-22T06:51:33.719Z,97883.41
2022-09-22T06:54:06.547Z,97876.65
2022-09-22T06:56:42.726Z,97871.10
2022-09-22T06:59:14.284Z,97876.57
2022-09-22T07:01:45.874Z,97873.30
2022-09-22T07:04:20.279Z,97871.39
2022-09-22T07:06:50.578Z,97877.04
2022-09-22T07:09:18.715Z,97876.38
2022-09-22T07:12:02.374Z,97880.39
2022-09-22T07:14:34.046Z,97875.45
2022-09-22T07:17:02.421Z,97880.20
2022-09-22T07:19:45.860Z,97877.92
2022-09-22T07:22:40.681Z,97876.56
2022-09-22T07:25:19.412Z,97879.52
2022-09-22T07:27:55.740Z,97876.66
2022-09-22T07:30:30.719Z,97876.54
2022-09-22T07:33:00.676Z,97877.15
2022-09-22T07:35:30.992Z,97874.06
2022-09-22T07:38:03.672Z,97867.67
2022-09-22T07:40:32.669Z,97868.98
2022-09-22T07:43:01.457Z,97866.96
2022-09-22T07:45:30.442Z,97866.75
2022-09-22T07:48:22.524Z,97865.23
2022-09-22T07:51:00.232Z,97870.40
2022-09-22T07:53:30.187Z,97873.73
2022-09-22T07:56:06.304Z,97870.94
2022-09-22T07:58:34.452Z,97871.23
2022-09-22T08:01:07.428Z,97873.74
2022-09-22T08:03:39.883Z,97875.31
2022-09-22T08:06:12.600Z,97871.20
2022-09-22T08:08:43.523Z,97869.56
2022-09-22T08:11:15.632Z,97870.16
2022-09-22T08:14:00.631Z,97866.27
2022-09-22T08:16:31.950Z,97865.57
2022-09-22T08:19:03.179Z,97863.79
2022-09-22T08:21:35.414Z,97858.95
2022-09-22T08:24:11.883Z,97861.05
2022-09-22T08:26:48.124Z,97852.24
2022-09-22T08:29:24.716Z,97853.48
2022-09-22T08:31:54.359Z,97855.11
2022-09-22T08:34:23.215Z,97856.20
2022-09-22T08:36:51.747Z,97858.70
2022-09-22T08:39:19.939Z,97854.91
2022-09-22T08:42:20.958Z,97861.91
2022-09-22T08:45:12.447Z,97857.28
2022-09-22T08:48:12.397Z,97856.47
2022-09-22T08:51:11.380Z,97852.57
2022-09-22T08:53:45.523Z,97856.37
2022-09-22T08:56:33.813Z,97852.29
2022-09-22T08:59:13.428Z,97851.15
2022-09-22T09:01:52.583Z,97845.23
2022-09-22T09:04:49.691Z,97849.33
2022-09-22T09:07:30.131Z,97851.04
2022-09-22T09:10:22.165Z,97851.66
2022-09-22T09:13:08.378Z,97849.08
2022-09-22T09:16:00.906Z,97841.95
2022-09-22T09:18:42.233Z,97842.88
2022-09-22T09:21:15.512Z,97847.60
2022-09-22T09:26:42.078Z,97845.38
2022-09-22T09:29:22.137Z,97853.55
2022-09-22T09:31:58.952Z,97849.35
2022-09-22T09:34:29.413Z,97849.73
2022-09-22T09:37:13.977Z,97840.16
2022-09-22T09:39:46.695Z,97834.23
2022-09-22T09:42:27.116Z,97832.81
2022-09-22T09:45:06.196Z,97839.98
2022-09-22T09:48:06.752Z,97825.21
2022-09-22T09:50:37.503Z,97815.13
2022-09-22T09:53:08.550Z,97817.93
2022-09-22T09:55:37.111Z,97831.86
2022-09-22T09:58:33.173Z,97831.64
2022-09-22T10:01:01.328Z,97820.99
2022-09-22T10:03:32.857Z,97816.83
2022-09-22T10:06:07.269Z,97813.59
2022-09-22T10:08:44.773Z,97805.98
2022-09-22T10:11:15.264Z,97818.77
2022-09-22T10:13:44.435Z,97813.52
2022-09-22T10:16:26.947Z,97823.55
2022-09-22T10:19:04.354Z,97818.15
2022-09-22T10:21:34.564Z,97808.25
2022-09-22T10:24:27.616Z,97802.67
2022-09-22T10:27:02.383Z,97810.39
2022-09-22T10:29:33.648Z,97809.59
2022-09-22T10:32:05.274Z,97811.73
2022-09-22T10:34:40.228Z,97812.84
2022-09-22T10:37:15.042Z,97809.02
2022-09-22T10:39:47.895Z,97810.30
2022-09-22T10:42:52.938Z,97802.52
2022-09-22T10:45:37.258Z,97796.40
2022-09-22T10:48:33.955Z,97788.13
2022-09-22T10:51:16.031Z,97784.45
2022-09-22T10:54:22.751Z,97787.48
2022-09-22T10:56:59.093Z,97774.21
2022-09-22T10:59:43.131Z,97784.27
2022-09-22T11:02:38.482Z,97768.30
2022-09-22T11:06:11.697Z,97763.86
2022-09-22T11:12:33.127Z,97769.49
2022-09-22T11:15:35.058Z,97770.24
2022-09-22T11:18:09.577Z,97770.54
2022-09-22T11:20:52.742Z,97763.29
2022-09-22T11:23:51.549Z,97748.79
2022-09-22T11:26:43.958Z,97750.79
2022-09-22T11:29:43.627Z,97749.35
2022-09-22T11:32:25.815Z,97758.89
2022-09-22T11:35:18.526Z,97752.98
2022-09-22T11:38:26.228Z,97749.15
2022-09-22T11:41:19.582Z,97747.30
2022-09-22T11:44:07.591Z,97743.16
2022-09-22T11:46:55.575Z,97738.61
2022-09-22T11:49:57.160Z,97736.73
2022-09-22T11:53:01.654Z,97730.80
2022-09-22T11:56:09.368Z,97719.32
2022-09-22T11:58:41.211Z,97727.72
2022-09-22T12:01:14.463Z,97729.93
2022-09-22T12:03:46.586Z,97730.08
2022-09-22T12:06:20.663Z,97733.38
2022-09-22T12:08:57.867Z,97731.45
2022-09-22T12:11:29.012Z,97728.52
2022-09-22T12:14:00.274Z,97727.13
2022-09-22T12:16:42.029Z,97728.61
2022-09-22T12:19:24.570Z,97722.88
2022-09-22T12:22:14.258Z,97723.35
2022-09-22T12:24:48.294Z,97718.49
2022-09-22T12:27:28.468Z,97716.52
2022-09-22T12:30:13.457Z,97717.92
2022-09-22T12:32:43.341Z,97717.77
2022-09-22T12:35:27.375Z,97719.02
2022-09-22T12:38:03.108Z,97711.61
2022-09-22T12:40:41.490Z,97712.20
2022-09-22T12:43:19.495Z,97711.45
2022-09-22T12:45:52.071Z,97712.77
2022-09-22T12:48:26.180Z,97710.89
2022-09-22T12:51:16.502Z,97708.73
2022-09-22T12:56:46.606Z,97712.31
2022-09-22T12:59:36.657Z,97716.80
2022-09-22T13:02:16.176Z,97721.71
2022-09-22T13:04:54.659Z,97712.76
2022-09-22T13:07:45.801Z,97708.63
2022-09-22T13:10:23.174Z,97714.08
2022-09-22T13:13:06.159Z,97704.63
2022-09-22T13:15:49.745Z,97713.42
2022-09-22T13:18:36.762Z,97711.38
2022-09-22T13:21:14.082Z,97707.95
2022-09-22T13:23:59.752Z,97709.71
2022-09-22T13:26:38.077Z,97706.83
2022-09-22T13:29:20.664Z,97708.63
2022-09-22T13:31:54.553Z,97707.52
2022-09-22T13:34:31.644Z,97707.29
2022-09-22T13:37:23.075Z,97703.98
2022-09-22T13:39:53.704Z,97697.20
2022-09-22T13:42:34.215Z,97706.79
2022-09-22T13:45:18.669Z,97709.31
2022-09-22T13:47:49.718Z,97722.78
2022-09-22T13:50:22.707Z,97711.17
2022-09-22T13:52:51.967Z,97716.39
2022-09-22T13:55:30.548Z,97721.19
2022-09-22T13:58:00.966Z,97719.03
2022-09-22T14:00:45.083Z,97712.52
2022-09-22T14:03:23.568Z,97714.20
2022-09-22T14:05:53.974Z,97707.52
2022-09-22T14:08:33.411Z,97705.36
2022-09-22T14:11:13.510Z,97706.42
2022-09-22T14:13:58.888Z,97705.00
2022-09-22T14:16:30.227Z,97705.11
2022-09-22T14:19:09.278Z,97700.16
2022-09-22T14:22:11.353Z,97702.61
2022-09-22T14:24:50.498Z,97703.23
2022-09-22T14:27:41.546Z,97708.45
2022-09-22T14:30:18.587Z,97706.56
2022-09-22T14:32:56.695Z,97708.61
2022-09-22T14:35:35.972Z,97726.95
2022-09-22T14:38:15.369Z,97721.55
2022-09-22T14:41:03.637Z,97721.86
2022-09-22T14:43:43.188Z,97722.95
2022-09-22T14:46:23.285Z,97720.42
2022-09-22T14:48:51.606Z,97725.09
2022-09-22T14:51:23.466Z,97724.73
2022-09-22T14:53:58.741Z,97731.10
2022-09-22T14:56:29.270Z,97746.39
2022-09-22T14:59:23.773Z,97751.87
2022-09-22T15:02:12.481Z,97768.63
2022-09-22T15:05:04.842Z,97783.60
2022-09-22T15:07:36.339Z,97778.17
2022-09-22T15:10:19.085Z,97788.40
2022-09-22T15:12:50.635Z,97793.92
2022-09-22T15:15:53.092Z,97806.46
2022-09-22T15:18:22.709Z,97805.41
2022-09-22T15:20:58.547Z,97802.20
2022-09-22T15:23:42.876Z,97806.61
2022-09-22T15:26:17.493Z,97810.36
2022-09-22T15:28:48.651Z,97818.73
2022-09-22T15:31:29.321Z,97817.19
2022-09-22T15:34:01.619Z,97817.56
2022-09-22T15:36:33.213Z,97820.70
2022-09-22T15:39:21.482Z,97822.14
2022-09-22T15:41:51.298Z,97823.58
2022-09-22T15:44:19.838Z,97825.34
2022-09-22T15:46:53.285Z,97836.40
2022-09-22T15:49:26.564Z,97841.23
2022-09-22T15:51:58.831Z,97842.05
2022-09-22T15:54:29.510Z,97857.77
2022-09-22T15:57:00.090Z,97863.14
2022-09-22T15:59:33.139Z,97869.08
2022-09-22T16:02:11.365Z,97865.67
2022-09-22T16:04:39.756Z,97868.80
2022-09-22T16:07:12.585Z,97870.54
2022-09-22T16:09:40.800Z,97867.48
2022-09-22T16:12:12.433Z,97867.87
2022-09-22T16:14:42.910Z,97869.73
2022-09-22T16:17:11.064Z,97877.01
2022-09-22T16:19:39.125Z,97879.35
2022-09-22T16:22:07.113Z,97887.45
2022-09-22T16:24:38.342Z,97886.04
2022-09-22T16:27:07.653Z,97887.81
2022-09-22T16:29:37.771Z,97890.56
2022-09-22T16:32:06.760Z,97891.08
2022-09-22T16:34:35.403Z,97892.67
2022-09-22T16:37:03.887Z,97896.08
2022-09-22T16:39:32.176Z,97899.53
2022-09-22T16:42:00.291Z,97898.14
2022-09-22T16:44:28.793Z,97899.30
2022-09-22T16:46:59.771Z,97897.99
2022-09-22T16:49:28.417Z,97902.53
2022-09-22T16:51:56.778Z,97908.83
2022-09-22T16:54:25.307Z,97911.55
2022-09-22T16:56:54.531Z,97916.92
2022-09-22T16:59:23.641Z,97913.50
2022-09-22T17:01:52.284Z,97914.65
2022-09-22T17:04:20.694Z,97919.48
2022-09-22T17:06:50.236Z,97924.72
2022-09-22T17:09:19.294Z,97922.63
2022-09-22T17:11:49.811Z,97925.98
2022-09-22T17:14:23.231Z,97926.76
2022-09-22T17:16:53.812Z,97929.10
2022-09-22T17:19:26.496Z,97928.41
2022-09-22T17:21:56.727Z,97932.30
2022-09-22T17:24:27.136Z,97932.27
2022-09-22T17:26:58.334Z,97932.05
2022-09-22T17:29:31.722Z,97934.98
2022-09-22T17:32:03.379Z,97940.87
2022-09-22T17:34:33.057Z,97940.46
2022-09-22T17:37:03.376Z,97948.19
2022-09-22T17:39:32.250Z,97953.95
2022-09-22T17:42:02.015Z,97952.45
2022-09-22T17:44:33.600Z,97953.05
2022-09-22T17:47:20.291Z,97951.51
2022-09-22T17:50:06.811Z,97952.33
2022-09-22T17:52:53.690Z,97954.59
2022-09-22T17:55:25.468Z,97955.23
2022-09-22T17:57:56.525Z,97958.52
2022-09-22T18:00:25.668Z,97962.04
2022-09-22T18:02:54.529Z,97964.20
2022-09-22T18:05:26.873Z,97958.93
2022-09-22T18:07:58.753Z,97962.40
2022-09-22T18:10:32.564Z,97963.20
2022-09-22T18:13:02.236Z,97967.55
2022-09-22T18:15:31.152Z,97971.90
2022-09-22T18:17:59.261Z,97970.88
2022-09-22T18:20:27.725Z,97973.90
2022-09-22T18:22:57.959Z,97974.50
2022-09-22T18:25:28.424Z,97978.95
2022-09-22T18:27:58.131Z,97980.38
2022-09-22T18:30:26.549Z,97978.63
2022-09-22T18:32:55.242Z,97984.27
2022-09-22T18:35:25.152Z,97983.04
2022-09-22T18:37:53.268Z,97979.17
2022-09-22T18:40:21.680Z,97982.12
2022-09-22T18:42:50.366Z,97978.05
2022-09-22T18:45:19.567Z,97977.91
2022-09-22T18:47:47.730Z,97976.94
2022-09-22T18:50:16.070Z,97976.76
2022-09-22T18:52:46.023Z,97978.77
2022-09-22T18:55:17.405Z,97979.33
2022-09-22T18:57:48.950Z,97979.15
2022-09-22T19:00:21.028Z,97983.02
2022-09-22T19:02:50.709Z,97990.17
2022-09-22T19:05:19.428Z,97986.67
2022-09-22T19:07:48.692Z,97984.20
2022-09-22T19:10:22.457Z,97983.45
2022-09-22T19:12:51.036Z,97981.60
2022-09-22T19:15:19.969Z,97977.70
2022-09-22T19:17:50.013Z,97974.97
2022-09-22T19:20:22.913Z,97976.57
2022-09-22T19:22:52.718Z,97975.96
2022-09-22T19:25:22.331Z,97971.59
2022-09-22T19:27:54.112Z,97971.30
2022-09-22T19:30:26.469Z,97969.96
2022-09-22T19:32:57.819Z,97972.25
2022-09-22T19:35:27.636Z,97970.61
2022-09-22T19:37:55.826Z,97974.32
2022-09-22T19:40:25.379Z,97971.55
2022-09-22T19:42:55.451Z,97970.59
2022-09-22T19:45:25.647Z,97974.39
2022-09-22T19:47:56.946Z,97980.52
2022-09-22T19:50:26.428Z,97978.26
2022-09-22T19:52:54.584Z,97979.59
2022-09-22T19:55:22.824Z,97979.38
2022-09-22T19:57:54.162Z,97983.11
2022-09-22T20:00:26.284Z,97991.96
2022-09-22T20:03:01.065Z,97988.34
2022-09-22T20:05:34.427Z,97986.36
2022-09-22T20:08:04.349Z,97984.65
2022-09-22T20:10:34.066Z,97982.27
2022-09-22T20:13:22.018Z,97975.60
2022-09-22T20:15:50.473Z,97977.40
2022-09-22T20:18:21.544Z,97972.75
2022-09-22T20:20:54.261Z,97976.48
2022-09-22T20:23:23.101Z,97974.19
2022-09-22T20:25:52.228Z,97973.44
2022-09-22T20:28:21.704Z,97977.36
2022-09-22T20:30:50.212Z,97973.00
2022-09-22T20:33:23.982Z,97974.23
2022-09-22T20:35:55.620Z,97975.34
2022-09-22T20:38:23.909Z,97974.02
2022-09-22T20:40:51.993Z,97975.29
2022-09-22T20:43:20.748Z,97974.67
2022-09-22T20:45:49.106Z,97976.61
2022-09-22T20:48:18.662Z,97975.58
2022-09-22T20:50:55.846Z,97972.09
2022-09-22T20:53:24.357Z,97972.56
2022-09-22T20:56:05.397Z,97971.30
2022-09-22T20:58:35.439Z,97970.27
2022-09-22T21:01:04.274Z,97972.95
2022-09-22T21:03:32.755Z,97969.66
2022-09-22T21:06:01.896Z,97970.87
2022-09-22T21:08:48.371Z,97968.84
2022-09-22T21:11:18.902Z,97966.94
2022-09-22T21:13:52.316Z,97964.50
2022-09-22T21:16:20.326Z,97964.66
2022-09-22T21:18:51.800Z,97966.30
2022-09-22T21:21:22.377Z,97966.80
2022-09-22T21:23:50.639Z,97966.77
2022-09-22T21:26:20.963Z,97970.89
2022-09-22T21:28:52.311Z,97968.46
2022-09-22T21:31:21.225Z,97967.33
2022-09-22T21:33:49.348Z,97966.23
2022-09-22T21:36:20.667Z,97965.54
2022-09-22T21:38:54.029Z,97968.91
2022-09-22T21:41:24.976Z,97965.88
2022-09-22T21:43:53.374Z,97965.36
2022-09-22T21:46:24.169Z,97969.74
2022-09-22T21:49:11.202Z,97969.52
2022-09-22T21:51:42.364Z,97964.81
2022-09-22T21:54:16.671Z,97966.48
2022-09-22T21:56:45.561Z,97965.84
2022-09-22T21:59:14.120Z,97961.66
2022-09-22T22:01:45.099Z,97962.04
2022-09-22T22:04:15.196Z,97966.30
2022-09-22T22:06:45.770Z,97961.06
2022-09-22T22:09:15.974Z,97958.67
2022-09-22T22:11:49.654Z,97955.50
2022-09-22T22:14:19.745Z,97956.96
2022-09-22T22:16:50.191Z,97955.17
2022-09-22T22:19:21.969Z,97953.84
2022-09-22T22:21:51.380Z,97952.48
2022-09-22T22:24:35.350Z,97949.59
2022-09-22T22:27:06.479Z,97956.75
2022-09-22T22:29:36.513Z,97953.36
2022-09-22T22:32:06.961Z,97953.08
2022-09-22T22:34:35.757Z,97948.13
2022-09-22T22:37:04.930Z,97943.95
2022-09-22T22:39:33.621Z,97946.62
2022-09-22T22:42:01.726Z,97939.30
2022-09-22T22:44:29.828Z,97940.17
2022-09-22T22:46:58.514Z,97940.92
2022-09-22T22:49:27.803Z,97941.41
2022-09-22T22:51:55.752Z,97937.52
2022-09-22T22:54:23.776Z,97936.91
2022-09-22T22:56:51.801Z,97935.58
2022-09-22T22:59:19.853Z,97932.32
2022-09-22T23:01:47.795Z,97932.38
2022-09-22T23:04:17.098Z,97929.90
2022-09-22T23:06:45.118Z,97926.88
2022-09-22T23:09:16.086Z,97926.64
2022-09-22T23:11:46.432Z,97918.95
2022-09-22T23:14:16.179Z,97915.90
2022-09-22T23:16:46.940Z,97915.05
2022-09-22T23:19:19.348Z,97915.61
2022-09-22T23:21:47.740Z,97916.94
2022-09-22T23:24:19.289Z,97914.73
2022-09-22T23:26:47.671Z,97913.42
2022-09-22T23:29:15.603Z,97914.58
2022-09-22T23:31:43.509Z,97919.10
2022-09-22T23:34:11.498Z,97920.27
2022-09-22T23:36:39.866Z,97916.86
2022-09-22T23:39:08.129Z,97915.93
2022-09-22T23:41:37.383Z,97913.48
2022-09-22T23:44:08.638Z,97916.00
2022-09-22T23:46:38.440Z,97917.61
2022-09-22T23:49:06.742Z,97913.04
2022-09-22T23:51:34.863Z,97913.00
2022-09-22T23:54:02.936Z,97915.25
2022-09-22T23:56:30.930Z,97915.43
2022-09-22T23:58:58.920Z,97914.71
